Time;durP1;ratioP1;P1;durP2;ratioP2;P2;SDS_P1;SDS_P2;PMS_P1;PMS_P2;Temp;Humidity;BMP_temperature;BMP_pressure;BME280_temperature;BME280_humidity;BME280_pressure;Samples;Min_cycle;Max_cycle;Signal;HPM_P1;HPM_P2
2023/12/27 00:00:06;;;;;;;30.73;20.60;;;;;;;1.89;69.08;93776.63;521938;28;802;-69
2023/12/27 00:00:21;;;;;;;39.45;26.60;;;;;;;1.91;69.13;93774.91;522303;28;1066;-69
2023/12/27 00:00:37;;;;;;;52.07;33.87;;;;;;;1.92;69.43;93772.94;523091;28;841;-69
2023/12/27 00:00:53;;;;;;;55.45;36.15;;;;;;;1.93;69.37;93767.00;521820;28;1002;-71
2023/12/27 00:01:08;;;;;;;50.00;32.90;;;;;;;1.95;69.31;93763.81;521915;28;829;-69
2023/12/27 00:01:24;;;;;;;56.38;35.90;;;;;;;1.95;68.81;93761.81;521987;28;818;-69
2023/12/27 00:01:39;;;;;;;63.77;41.57;;;;;;;1.96;68.76;93766.03;522034;28;1682;-69
2023/12/27 00:01:54;;;;;;;59.70;39.13;;;;;;;1.97;68.73;93770.22;522730;28;817;-69
2023/12/27 00:02:10;;;;;;;48.77;33.20;;;;;;;1.97;68.39;93764.78;523112;28;1140;-69
2023/12/27 00:02:26;;;;;;;43.25;29.63;;;;;;;1.98;68.31;93768.25;521912;28;856;-69
2023/12/27 00:02:41;;;;;;;40.13;27.35;;;;;;;1.98;68.88;93765.53;521926;28;793;-69
2023/12/27 00:02:57;;;;;;;43.33;28.67;;;;;;;2.00;69.01;93768.53;521745;28;920;-69
2023/12/27 00:03:13;;;;;;;46.00;30.13;;;;;;;2.00;68.95;93771.25;521780;28;849;-69
2023/12/27 00:03:28;;;;;;;42.78;28.52;;;;;;;1.99;68.80;93764.31;522588;28;1125;-69
2023/12/27 00:03:44;;;;;;;38.03;26.80;;;;;;;1.98;68.71;93769.00;523710;28;1053;-69
2023/12/27 00:03:59;;;;;;;36.92;26.83;;;;;;;1.99;68.69;93767.75;521638;28;845;-69
2023/12/27 00:04:15;;;;;;;34.23;26.13;;;;;;;2.00;68.76;93766.53;522500;28;1109;-69
2023/12/27 00:04:30;;;;;;;35.40;26.17;;;;;;;2.01;68.86;93765.34;523757;28;916;-69
2023/12/27 00:04:45;;;;;;;37.00;26.63;;;;;;;2.01;69.32;93765.34;523236;28;1745;-69
2023/12/27 00:05:01;;;;;;;37.87;26.03;;;;;;;2.03;68.99;93767.56;522555;28;1116;-69
2023/12/27 00:05:16;;;;;;;37.45;25.40;;;;;;;2.03;68.99;93771.03;523420;28;1436;-68
2023/12/27 00:05:32;;;;;;;35.17;25.73;;;;;;;2.06;68.66;93766.56;521940;28;766;-68
2023/12/27 00:05:47;;;;;;;37.90;26.85;;;;;;;2.06;69.11;93763.84;521898;28;857;-69
2023/12/27 00:06:03;;;;;;;39.20;27.30;;;;;;;2.07;69.36;93774.28;521792;28;809;-69
2023/12/27 00:06:18;;;;;;;38.80;26.67;;;;;;;2.06;69.01;93766.56;521833;28;833;-68
2023/12/27 00:06:34;;;;;;;40.30;27.23;;;;;;;2.06;69.14;93769.28;521833;28;841;-69
2023/12/27 00:06:51;;;;;;;40.95;29.00;;;;;;;2.02;68.94;93764.09;521724;28;1081;-68
2023/12/27 00:07:06;;;;;;;41.10;29.48;;;;;;;1.99;68.85;93767.03;521964;28;805;-69
2023/12/27 00:07:22;;;;;;;44.40;29.83;;;;;;;1.97;69.50;93772.22;521941;28;849;-69
2023/12/27 00:07:37;;;;;;;44.72;30.30;;;;;;;1.94;69.64;93768.50;521830;28;829;-69
2023/12/27 00:07:53;;;;;;;42.97;30.23;;;;;;;1.93;69.59;93769.72;521879;28;848;-69
2023/12/27 00:08:08;;;;;;;41.10;29.30;;;;;;;1.94;69.38;93762.31;521581;28;905;-69
2023/12/27 00:08:24;;;;;;;37.40;27.93;;;;;;;1.95;69.18;93769.25;521801;28;865;-69
2023/12/27 00:08:39;;;;;;;36.08;27.25;;;;;;;1.78;69.14;93738.41;521907;28;1437;-69
2023/12/27 00:08:54;;;;;;;37.87;26.83;;;;;;;1.98;69.43;93773.72;523564;28;833;-68
2023/12/27 00:09:10;;;;;;;40.23;27.40;;;;;;;1.98;69.29;93776.44;521864;28;790;-69
2023/12/27 00:09:25;;;;;;;39.53;26.58;;;;;;;1.98;69.30;93776.44;521615;28;774;-68
2023/12/27 00:09:41;;;;;;;37.50;24.57;;;;;;;1.99;69.46;93769.75;523407;28;829;-69
2023/12/27 00:09:56;;;;;;;38.15;24.65;;;;;;;2.02;69.40;93768.78;523787;28;975;-68
2023/12/27 00:10:12;;;;;;;36.33;24.97;;;;;;;2.02;69.30;93763.34;523766;28;1056;-68
2023/12/27 00:10:27;;;;;;;34.53;24.27;;;;;;;1.97;68.85;93759.34;523874;28;801;-69
2023/12/27 00:10:43;;;;;;;33.40;23.70;;;;;;;1.99;68.94;93767.75;522549;28;750;-69
2023/12/27 00:10:58;;;;;;;32.33;23.73;;;;;;;1.89;68.74;93763.75;521721;28;897;-68
2023/12/27 00:11:17;;;;;;;34.67;24.30;;;;;;;1.87;68.61;93765.47;522195;28;1678;-69
2023/12/27 00:11:33;;;;;;;37.35;25.05;;;;;;;1.77;69.16;93766.88;523533;28;873;-68
2023/12/27 00:11:48;;;;;;;35.95;23.70;;;;;;;1.72;69.04;93768.34;523409;28;989;-69
2023/12/27 00:12:04;;;;;;;32.83;22.37;;;;;;;1.67;69.46;93771.03;523932;28;873;-69
2023/12/27 00:12:19;;;;;;;30.70;21.83;;;;;;;1.59;69.31;93769.97;522392;28;765;-69
2023/12/27 00:12:35;;;;;;;33.50;22.25;;;;;;;1.55;69.72;93762.03;521927;28;861;-69
2023/12/27 00:12:50;;;;;;;32.63;21.80;;;;;;;1.56;69.51;93770.94;521879;28;913;-69
2023/12/27 00:13:06;;;;;;;29.73;20.93;;;;;;;1.56;69.73;93771.66;521939;28;801;-69
2023/12/27 00:13:22;;;;;;;31.38;21.25;;;;;;;1.58;69.57;93766.50;522591;28;985;-69
2023/12/27 00:13:37;;;;;;;31.83;21.60;;;;;;;1.61;70.06;93764.78;523976;28;824;-69
2023/12/27 00:13:52;;;;;;;29.73;21.67;;;;;;;1.64;70.04;93766.53;523062;28;1756;-68
2023/12/27 00:14:08;;;;;;;28.30;21.50;;;;;;;1.65;69.69;93768.78;522879;28;758;-69
2023/12/27 00:14:23;;;;;;;27.70;20.97;;;;;;;1.68;69.89;93770.53;522953;28;853;-69
2023/12/27 00:14:39;;;;;;;27.65;20.73;;;;;;;1.70;69.42;93768.06;521664;28;837;-69
2023/12/27 00:14:54;;;;;;;29.53;20.87;;;;;;;1.73;69.53;93767.13;522365;28;1006;-69
2023/12/27 00:15:10;;;;;;;32.05;21.38;;;;;;;1.75;69.74;93766.63;523775;28;791;-69
2023/12/27 00:15:25;;;;;;;30.23;21.00;;;;;;;1.79;69.44;93769.88;523684;28;782;-69
2023/12/27 00:15:45;;;;;;;29.75;20.13;;;;;;;1.78;69.24;93771.84;522421;28;1914;-69
2023/12/27 00:16:01;;;;;;;30.08;20.15;;;;;;;1.82;69.14;93771.63;522122;28;904;-69
2023/12/27 00:16:16;;;;;;;27.83;19.70;;;;;;;1.81;69.36;93770.13;523255;28;822;-69
2023/12/27 00:16:32;;;;;;;25.45;19.60;;;;;;;1.81;69.15;93770.88;523530;28;1083;-69
2023/12/27 00:16:47;;;;;;;27.30;20.07;;;;;;;1.81;69.31;93770.88;521892;28;760;-69
2023/12/27 00:17:03;;;;;;;29.30;20.47;;;;;;;1.80;69.44;93771.38;521569;28;857;-69
2023/12/27 00:17:18;;;;;;;28.65;20.60;;;;;;;1.80;69.24;93772.09;521594;28;790;-69
2023/12/27 00:17:34;;;;;;;29.73;20.37;;;;;;;1.81;68.84;93776.31;521510;28;874;-69
2023/12/27 00:17:49;;;;;;;29.48;19.85;;;;;;;1.81;69.14;93772.84;521669;28;955;-69
2023/12/27 00:18:05;;;;;;;27.50;19.87;;;;;;;1.82;69.01;93774.34;521648;28;979;-69
2023/12/27 00:18:20;;;;;;;25.60;18.58;;;;;;;1.83;69.35;93773.13;522696;28;1388;-69
2023/12/27 00:18:36;;;;;;;25.05;17.48;;;;;;;1.84;68.91;93769.16;522563;28;856;-69
2023/12/27 00:18:51;;;;;;;26.00;17.77;;;;;;;1.86;68.81;93772.16;523110;28;774;-69
2023/12/27 00:19:07;;;;;;;26.67;17.58;;;;;;;1.87;68.58;93771.66;521698;28;802;-69
2023/12/27 00:19:22;;;;;;;26.83;17.50;;;;;;;1.88;68.81;93767.72;522263;28;826;-69
2023/12/27 00:19:38;;;;;;;23.48;16.63;;;;;;;1.88;68.51;93761.53;523657;28;762;-69
2023/12/27 00:19:53;;;;;;;21.37;15.77;;;;;;;1.88;68.27;93765.00;523658;28;1053;-69
2023/12/27 00:20:09;;;;;;;21.15;15.48;;;;;;;1.88;68.28;93761.53;523662;28;936;-69
2023/12/27 00:20:25;;;;;;;23.02;15.73;;;;;;;1.89;68.10;93763.75;523403;28;843;-69
2023/12/27 00:20:40;;;;;;;24.23;16.33;;;;;;;1.90;67.63;93767.22;521751;28;920;-69
2023/12/27 00:20:56;;;;;;;24.08;16.52;;;;;;;1.90;68.05;93769.94;521475;28;1711;-69
2023/12/27 00:21:11;;;;;;;23.30;16.10;;;;;;;1.85;67.32;93763.22;522165;28;857;-69
2023/12/27 00:21:27;;;;;;;20.95;15.40;;;;;;;1.84;67.67;93772.63;523390;28;1020;-69
2023/12/27 00:21:42;;;;;;;21.60;15.57;;;;;;;1.85;67.44;93771.41;521697;28;812;-69
2023/12/27 00:21:57;;;;;;;20.88;15.70;;;;;;;1.86;67.46;93769.44;521615;28;862;-69
2023/12/27 00:22:14;;;;;;;23.00;16.13;;;;;;;1.83;67.36;93768.41;521733;28;848;-69
2023/12/27 00:22:30;;;;;;;27.10;17.05;;;;;;;1.87;67.41;93776.34;521607;28;884;-69
2023/12/27 00:22:45;;;;;;;23.00;16.10;;;;;;;1.86;67.91;93774.88;521682;28;762;-69
2023/12/27 00:23:01;;;;;;;22.10;16.00;;;;;;;1.84;67.87;93766.44;521720;28;1081;-69
2023/12/27 00:23:16;;;;;;;23.87;16.27;;;;;;;1.83;67.72;93771.13;521826;28;853;-69
2023/12/27 00:23:32;;;;;;;24.10;16.25;;;;;;;1.83;68.20;93767.66;521721;28;813;-69
2023/12/27 00:23:47;;;;;;;22.03;16.00;;;;;;;1.84;68.33;93771.91;521999;28;1832;-69
2023/12/27 00:24:03;;;;;;;20.90;15.60;;;;;;;1.69;67.84;93746.78;523340;28;912;-69
2023/12/27 00:24:18;;;;;;;23.77;15.83;;;;;;;1.77;67.58;93764.16;522026;28;798;-69
2023/12/27 00:24:33;;;;;;;23.77;15.90;;;;;;;1.75;67.85;93769.34;521660;28;805;-69
2023/12/27 00:24:49;;;;;;;21.90;16.00;;;;;;;1.74;67.87;93763.16;521892;28;1019;-68
2023/12/27 00:25:04;;;;;;;21.92;16.30;;;;;;;1.75;67.72;93777.50;521670;28;928;-69
2023/12/27 00:25:20;;;;;;;23.00;16.10;;;;;;;1.74;67.74;93770.56;521675;28;794;-69
2023/12/27 00:25:35;;;;;;;21.80;15.53;;;;;;;1.72;67.74;93773.03;521733;28;744;-69
2023/12/27 00:25:51;;;;;;;21.77;16.20;;;;;;;1.70;67.96;93767.31;521537;28;856;-69
2023/12/27 00:26:06;;;;;;;22.57;16.43;;;;;;;1.71;67.63;93772.28;521585;28;873;-69
2023/12/27 00:26:22;;;;;;;22.73;16.63;;;;;;;1.71;67.84;93771.56;522391;28;918;-69
2023/12/27 00:26:37;;;;;;;25.25;17.33;;;;;;;1.68;67.90;93770.53;522232;28;1914;-69
2023/12/27 00:26:53;;;;;;;24.90;17.27;;;;;;;1.65;68.17;93773.47;521942;28;1341;-69
2023/12/27 00:27:08;;;;;;;24.13;17.55;;;;;;;1.63;67.95;93770.47;523177;28;1016;-69
2023/12/27 00:27:24;;;;;;;25.27;17.23;;;;;;;1.61;67.78;93772.94;523682;28;837;-69
2023/12/27 00:27:39;;;;;;;23.93;16.60;;;;;;;1.61;68.33;93776.41;523763;28;856;-69
2023/12/27 00:27:55;;;;;;;21.05;16.83;;;;;;;1.61;67.91;93770.22;523687;28;1005;-69
2023/12/27 00:28:10;;;;;;;20.67;16.23;;;;;;;1.61;68.33;93778.38;523766;28;844;-69
2023/12/27 00:28:26;;;;;;;20.88;15.60;;;;;;;1.62;68.47;93771.72;523660;28;832;-69
2023/12/27 00:28:41;;;;;;;22.00;16.00;;;;;;;1.63;67.96;93775.91;522470;28;1136;-69
2023/12/27 00:28:56;;;;;;;22.92;16.25;;;;;;;1.64;68.17;93770.00;521627;28;873;-69
2023/12/27 00:29:12;;;;;;;24.07;16.73;;;;;;;1.66;68.52;93772.25;521997;28;1761;-69
2023/12/27 00:29:27;;;;;;;22.38;16.00;;;;;;;1.67;68.39;93773.75;522567;28;904;-69
2023/12/27 00:29:43;;;;;;;20.60;15.20;;;;;;;1.69;68.07;93771.28;522977;28;765;-69
2023/12/27 00:29:58;;;;;;;20.55;15.43;;;;;;;1.69;68.06;93776.72;521685;28;841;-69
2023/12/27 00:30:14;;;;;;;21.77;15.23;;;;;;;1.67;68.47;93773.75;521838;28;1061;-69
2023/12/27 00:30:29;;;;;;;22.03;14.80;;;;;;;1.63;68.52;93776.69;521859;28;856;-69
2023/12/27 00:30:48;;;;;;;19.73;14.45;;;;;;;1.59;68.14;93776.16;521922;28;790;-69
2023/12/27 00:31:04;;;;;;;20.30;14.82;;;;;;;1.47;68.36;93764.41;521872;28;862;-69
2023/12/27 00:31:19;;;;;;;18.58;14.43;;;;;;;1.46;68.29;93773.81;522573;28;861;-69
2023/12/27 00:31:35;;;;;;;17.47;14.20;;;;;;;1.44;68.25;93773.56;523898;28;773;-69
2023/12/27 00:31:50;;;;;;;17.42;13.88;;;;;;;1.44;68.87;93776.28;523731;28;1029;-69
2023/12/27 00:32:09;;;;;;;14.83;12.90;;;;;;;1.46;68.78;93779.28;523923;28;869;-68
2023/12/27 00:32:25;;;;;;;16.13;12.77;;;;;;;1.47;68.31;93778.03;523875;28;841;-69
2023/12/27 00:32:40;;;;;;;16.73;13.35;;;;;;;1.37;68.48;93782.16;523888;28;810;-69
2023/12/27 00:32:55;;;;;;;16.03;12.83;;;;;;;1.20;69.14;93775.81;523852;28;865;-69
2023/12/27 00:33:11;;;;;;;15.77;12.03;;;;;;;1.06;69.43;93779.38;523967;28;778;-69
2023/12/27 00:33:26;;;;;;;15.43;11.48;;;;;;;0.91;70.25;93780.72;523339;28;1586;-69
2023/12/27 00:33:42;;;;;;;17.43;12.43;;;;;;;0.76;70.46;93784.25;522500;28;865;-69
2023/12/27 00:33:57;;;;;;;17.13;13.00;;;;;;;0.73;70.62;93785.22;523687;28;889;-69
2023/12/27 00:34:13;;;;;;;17.03;12.40;;;;;;;0.73;70.83;93779.78;521831;28;754;-69
2023/12/27 00:34:28;;;;;;;17.67;12.40;;;;;;;0.73;70.76;93779.78;521823;28;778;-69
2023/12/27 00:34:44;;;;;;;17.63;12.77;;;;;;;0.77;70.91;93779.56;521841;28;845;-69
2023/12/27 00:34:59;;;;;;;16.40;12.80;;;;;;;0.80;70.59;93786.03;521730;28;1136;-69
2023/12/27 00:35:14;;;;;;;15.60;12.07;;;;;;;0.85;70.88;93785.31;523915;28;861;-69
2023/12/27 00:35:30;;;;;;;17.73;12.65;;;;;;;0.89;70.55;93777.72;523839;28;892;-68
2023/12/27 00:35:46;;;;;;;17.33;12.90;;;;;;;0.92;70.67;93780.22;522084;28;1969;-69
2023/12/27 00:36:02;;;;;;;17.85;12.75;;;;;;;0.98;70.49;93785.72;521912;28;833;-69
2023/12/27 00:36:19;;;;;;;17.52;12.38;;;;;;;0.98;70.72;93783.00;521782;28;782;-69
2023/12/27 00:36:35;;;;;;;15.40;12.02;;;;;;;1.01;70.37;93782.81;521608;28;1709;-69
2023/12/27 00:36:50;;;;;;;16.55;13.07;;;;;;;1.05;70.18;93782.56;521789;28;1073;-69
2023/12/27 00:37:06;;;;;;;16.10;13.10;;;;;;;1.08;70.52;93787.81;523756;28;940;-69
2023/12/27 00:37:21;;;;;;;18.15;13.15;;;;;;;1.12;69.95;93787.59;521877;28;865;-69
2023/12/27 00:37:36;;;;;;;19.10;13.23;;;;;;;1.07;70.50;93789.03;521853;28;766;-69
2023/12/27 00:37:52;;;;;;;16.85;12.27;;;;;;;0.95;70.60;93782.00;521894;28;845;-69
2023/12/27 00:38:07;;;;;;;14.47;11.07;;;;;;;0.88;71.46;93785.13;521790;28;774;-69
2023/12/27 00:38:23;;;;;;;15.67;10.57;;;;;;;0.82;71.32;93789.78;523110;28;1026;-69
2023/12/27 00:38:38;;;;;;;14.95;10.18;;;;;;;0.81;71.62;93795.66;523905;28;864;-69
2023/12/27 00:38:53;;;;;;;13.07;9.47;;;;;;;0.83;71.90;93801.38;522057;28;1047;-69
2023/12/27 00:39:10;;;;;;;13.50;9.75;;;;;;;0.86;71.85;93795.75;521874;28;778;-69
2023/12/27 00:39:26;;;;;;;12.13;10.13;;;;;;;0.90;72.01;93796.28;522059;28;1701;-69
2023/12/27 00:39:41;;;;;;;11.93;10.02;;;;;;;0.94;71.58;93794.09;523459;28;1079;-69
2023/12/27 00:39:57;;;;;;;11.85;9.68;;;;;;;0.97;71.83;93790.44;523012;28;1077;-69
2023/12/27 00:40:12;;;;;;;11.13;9.07;;;;;;;0.94;71.99;93791.38;523979;28;805;-69
2023/12/27 00:40:28;;;;;;;11.30;8.82;;;;;;;0.90;71.97;93796.28;522217;28;861;-69
2023/12/27 00:40:43;;;;;;;11.57;8.83;;;;;;;0.84;72.12;93798.19;521938;28;921;-69
2023/12/27 00:41:03;;;;;;;11.18;8.68;;;;;;;0.80;72.23;93799.63;521671;28;790;-69
2023/12/27 00:41:18;;;;;;;10.32;8.38;;;;;;;0.78;72.18;93803.53;521878;28;889;-69
2023/12/27 00:41:34;;;;;;;12.02;7.80;;;;;;;0.81;72.37;93801.84;522490;28;986;-69
2023/12/27 00:41:49;;;;;;;11.83;8.20;;;;;;;0.81;72.23;93795.66;523931;28;927;-69
2023/12/27 00:42:05;;;;;;;10.55;8.52;;;;;;;0.83;72.38;93802.13;522518;28;1852;-69
2023/12/27 00:42:21;;;;;;;11.70;8.63;;;;;;;0.87;72.00;93802.66;523356;28;778;-69
2023/12/27 00:42:37;;;;;;;11.90;8.52;;;;;;;0.91;72.17;93805.91;522132;28;917;-69
2023/12/27 00:42:52;;;;;;;12.68;8.27;;;;;;;0.94;72.37;93804.97;521879;28;832;-69
2023/12/27 00:43:07;;;;;;;11.63;8.77;;;;;;;0.97;72.22;93803.25;523070;28;982;-69
2023/12/27 00:43:23;;;;;;;11.60;8.75;;;;;;;0.97;71.57;93798.59;524003;28;860;-69
2023/12/27 00:43:39;;;;;;;11.37;8.40;;;;;;;1.01;71.62;93795.63;523863;28;794;-69
2023/12/27 00:43:55;;;;;;;11.30;9.10;;;;;;;1.04;71.94;93800.13;523827;28;833;-69
2023/12/27 00:44:10;;;;;;;12.13;9.23;;;;;;;1.08;71.69;93798.69;522511;28;836;-69
2023/12/27 00:44:26;;;;;;;13.38;8.85;;;;;;;1.11;71.14;93802.41;521854;28;809;-69
2023/12/27 00:44:41;;;;;;;13.23;9.03;;;;;;;1.12;71.48;93799.22;521740;28;853;-69
2023/12/27 00:44:57;;;;;;;11.63;8.82;;;;;;;1.14;71.33;93807.66;523240;28;1140;-70
2023/12/27 00:45:12;;;;;;;10.50;8.13;;;;;;;1.16;71.05;93804.44;522559;28;1785;-69
2023/12/27 00:45:28;;;;;;;10.05;8.13;;;;;;;1.18;71.20;93813.63;522874;28;857;-69
2023/12/27 00:45:43;;;;;;;12.37;8.57;;;;;;;1.22;70.95;93807.97;522582;28;788;-69
2023/12/27 00:45:59;;;;;;;11.70;8.32;;;;;;;1.23;70.70;93807.50;521531;28;970;-69
2023/12/27 00:46:14;;;;;;;11.20;8.43;;;;;;;1.25;70.72;93807.78;522682;28;795;-69
2023/12/27 00:46:30;;;;;;;11.85;8.43;;;;;;;1.11;70.39;93783.38;523467;28;1056;-69
2023/12/27 00:46:45;;;;;;;10.17;8.40;;;;;;;1.29;70.44;93808.28;523711;28;801;-69
2023/12/27 00:47:00;;;;;;;12.00;9.48;;;;;;;1.32;70.80;93815.47;523753;28;805;-69
2023/12/27 00:47:16;;;;;;;14.50;9.63;;;;;;;1.35;70.45;93816.50;522929;28;773;-69
2023/12/27 00:47:32;;;;;;;12.77;8.65;;;;;;;1.38;70.76;93810.09;521721;28;798;-69
2023/12/27 00:47:47;;;;;;;10.90;8.00;;;;;;;1.39;70.49;93803.44;521714;28;858;-69
2023/12/27 00:48:03;;;;;;;11.43;8.45;;;;;;;1.41;70.65;93812.59;522265;28;1093;-69
2023/12/27 00:48:18;;;;;;;12.50;9.27;;;;;;;1.38;70.71;93816.31;523722;28;778;-69
2023/12/27 00:48:34;;;;;;;12.65;9.43;;;;;;;1.37;70.49;93814.78;523764;28;1056;-69
2023/12/27 00:48:49;;;;;;;10.63;9.00;;;;;;;1.36;70.18;93813.31;523706;28;1112;-69
2023/12/27 00:49:05;;;;;;;11.00;9.15;;;;;;;1.37;70.15;93808.59;522911;28;1379;-69
2023/12/27 00:49:21;;;;;;;12.23;10.07;;;;;;;1.37;70.29;93806.63;522383;28;900;-69
2023/12/27 00:49:37;;;;;;;13.48;10.55;;;;;;;1.39;70.06;93814.31;522597;28;1717;-69
2023/12/27 00:49:52;;;;;;;13.60;10.02;;;;;;;1.41;69.94;93812.59;521817;28;845;-69
2023/12/27 00:50:08;;;;;;;13.57;10.37;;;;;;;1.43;70.20;93812.13;522207;28;990;-68
2023/12/27 00:50:23;;;;;;;16.27;11.93;;;;;;;1.45;70.09;93807.69;523611;28;904;-69
2023/12/27 00:50:39;;;;;;;17.40;12.55;;;;;;;1.49;70.02;93808.22;521792;28;766;-69
2023/12/27 00:50:54;;;;;;;15.77;12.50;;;;;;;1.49;70.45;93805.50;521473;28;841;-69
2023/12/27 00:51:18;;;;;;;16.73;12.88;;;;;;;1.52;70.28;93810.00;522118;28;797;-68
2023/12/27 00:51:33;;;;;;;16.30;12.15;;;;;;;1.54;70.19;93810.25;521730;28;919;-69
2023/12/27 00:51:49;;;;;;;16.47;12.27;;;;;;;1.53;69.61;93806.06;523549;28;773;-69
2023/12/27 00:52:05;;;;;;;15.75;12.05;;;;;;;1.55;69.67;93808.28;522180;28;820;-69
2023/12/27 00:52:20;;;;;;;14.43;11.40;;;;;;;1.56;70.22;93809.03;521571;28;1528;-69
2023/12/27 00:52:36;;;;;;;13.75;11.23;;;;;;;1.54;69.70;93812.22;521679;28;873;-69
2023/12/27 00:52:52;;;;;;;14.70;11.38;;;;;;;1.54;70.35;93810.25;522155;28;1089;-69
2023/12/27 00:53:07;;;;;;;15.37;11.17;;;;;;;1.57;70.17;93808.53;523691;28;1015;-69
2023/12/27 00:53:22;;;;;;;15.90;11.52;;;;;;;1.57;70.38;93815.94;523708;28;856;-69
2023/12/27 00:53:38;;;;;;;17.57;12.00;;;;;;;1.58;70.27;93812.03;523722;28;749;-68
2023/12/27 00:53:53;;;;;;;17.13;11.82;;;;;;;1.59;70.17;93813.50;522460;28;1669;-69
2023/12/27 00:54:09;;;;;;;15.10;11.63;;;;;;;1.44;70.73;93808.94;523033;28;789;-69
2023/12/27 00:54:24;;;;;;;17.52;12.10;;;;;;;1.25;71.55;93802.34;522347;28;863;-69
2023/12/27 00:54:40;;;;;;;17.17;11.87;;;;;;;1.21;71.77;93806.47;523721;28;1041;-69
2023/12/27 00:54:55;;;;;;;15.10;11.48;;;;;;;1.13;71.58;93803.44;522418;28;1127;-69
2023/12/27 00:55:10;;;;;;;15.67;11.53;;;;;;;1.04;72.09;93809.00;521714;28;828;-69
2023/12/27 00:55:26;;;;;;;16.27;11.57;;;;;;;0.97;73.03;93804.03;521632;28;1064;-69
2023/12/27 00:55:41;;;;;;;16.48;11.20;;;;;;;0.96;72.79;93807.19;521638;28;1914;-68
2023/12/27 00:55:57;;;;;;;15.77;10.57;;;;;;;0.98;72.51;93810.94;521570;28;801;-69
2023/12/27 00:56:12;;;;;;;15.90;10.90;;;;;;;1.01;73.20;93803.78;523139;28;1176;-69
2023/12/27 00:56:28;;;;;;;15.40;10.87;;;;;;;1.04;72.85;93819.16;522771;28;1665;-69
2023/12/27 00:56:43;;;;;;;14.45;10.38;;;;;;;1.06;73.17;93811.28;522559;28;916;-69
2023/12/27 00:56:59;;;;;;;14.60;10.13;;;;;;;1.10;73.08;93817.25;523110;28;773;-69
2023/12/27 00:57:16;;;;;;;14.48;11.07;;;;;;;1.10;72.79;93806.38;523235;28;1065;-69
2023/12/27 00:57:31;;;;;;;14.88;11.70;;;;;;;1.08;72.81;93806.84;523054;28;955;-69
2023/12/27 00:57:47;;;;;;;13.73;11.40;;;;;;;1.11;73.22;93807.84;521620;28;856;-69
2023/12/27 00:58:03;;;;;;;14.73;11.40;;;;;;;1.13;72.99;93808.88;521688;28;873;-69
2023/12/27 00:58:18;;;;;;;14.60;10.30;;;;;;;1.15;72.99;93809.13;525606;28;856;-69
2023/12/27 00:58:34;;;;;;;15.27;10.43;;;;;;;1.17;73.16;93817.56;525783;28;801;-69
2023/12/27 00:58:50;;;;;;;16.17;10.80;;;;;;;1.22;73.03;93818.84;526860;28;1009;-69
2023/12/27 00:59:06;;;;;;;13.40;9.82;;;;;;;1.13;72.61;93799.97;526264;28;1510;-70
2023/12/27 00:59:21;;;;;;;11.00;9.35;;;;;;;1.26;72.48;93817.41;526236;28;908;-69
2023/12/27 00:59:37;;;;;;;11.57;9.67;;;;;;;1.29;72.40;93821.16;526366;28;1721;-69
2023/12/27 00:59:52;;;;;;;12.35;10.57;;;;;;;1.16;73.18;93816.06;527541;28;833;-69
2023/12/27 01:00:08;;;;;;;12.60;10.47;;;;;;;1.11;73.03;93822.19;525342;28;779;-69
2023/12/27 01:00:24;;;;;;;13.13;10.20;;;;;;;0.97;73.60;93814.91;522602;28;1128;-69
2023/12/27 01:00:40;;;;;;;12.13;10.77;;;;;;;0.91;73.42;93818.78;523849;28;841;-69
2023/12/27 01:00:55;;;;;;;13.68;10.63;;;;;;;0.88;73.68;93817.75;523847;28;833;-69
2023/12/27 01:01:11;;;;;;;12.73;9.73;;;;;;;0.90;74.26;93815.31;523941;28;808;-69
2023/12/27 01:01:29;;;;;;;10.48;8.93;;;;;;;0.91;74.07;93824.94;523841;28;955;-69
2023/12/27 01:01:45;;;;;;;11.30;9.00;;;;;;;0.94;74.06;93829.44;521921;28;885;-69
2023/12/27 01:02:02;;;;;;;11.80;9.50;;;;;;;0.97;74.05;93836.63;521623;28;1014;-69
2023/12/27 01:02:17;;;;;;;12.45;9.75;;;;;;;1.01;74.24;93836.41;521638;28;930;-68
2023/12/27 01:02:34;;;;;;;12.23;9.90;;;;;;;1.03;74.15;93832.00;521384;28;1043;-69
2023/12/27 01:02:50;;;;;;;13.27;10.25;;;;;;;1.03;73.98;93828.53;523000;28;853;-69
2023/12/27 01:03:05;;;;;;;15.17;11.43;;;;;;;1.02;73.81;93822.34;521510;28;853;-69
2023/12/27 01:03:21;;;;;;;16.23;12.43;;;;;;;1.08;73.69;93819.69;521439;28;1147;-69
2023/12/27 01:03:36;;;;;;;17.53;12.67;;;;;;;1.01;72.99;93817.41;523642;28;1125;-69
2023/12/27 01:03:52;;;;;;;19.40;12.40;;;;;;;1.00;73.20;93822.06;521376;28;979;-70
2023/12/27 01:04:07;;;;;;;16.97;11.43;;;;;;;1.02;72.59;93825.06;521367;28;782;-69
2023/12/27 01:04:23;;;;;;;14.33;10.73;;;;;;;1.03;73.10;93829.28;524731;28;1144;-69
2023/12/27 01:04:38;;;;;;;15.30;10.73;;;;;;;1.06;72.46;93831.03;525593;28;938;-69
2023/12/27 01:04:54;;;;;;;16.33;11.07;;;;;;;1.03;72.59;93821.13;523837;28;1005;-69
2023/12/27 01:05:09;;;;;;;16.88;11.20;;;;;;;1.10;72.41;93823.44;523680;28;825;-69
2023/12/27 01:05:24;;;;;;;16.83;11.70;;;;;;;1.07;72.23;93821.66;523529;28;1132;-69
2023/12/27 01:05:40;;;;;;;15.38;11.73;;;;;;;0.97;72.39;93822.28;523689;28;868;-69
2023/12/27 01:05:55;;;;;;;14.10;11.10;;;;;;;0.93;72.24;93827.94;521906;28;1685;-68
2023/12/27 01:06:11;;;;;;;14.98;11.13;;;;;;;0.86;72.55;93827.59;522944;28;1122;-69
2023/12/27 01:06:26;;;;;;;16.30;11.63;;;;;;;0.84;72.92;93825.38;522308;28;1044;-69
2023/12/27 01:06:42;;;;;;;16.45;11.68;;;;;;;0.86;72.63;93819.44;521597;28;813;-69
2023/12/27 01:06:57;;;;;;;16.07;10.80;;;;;;;0.86;72.78;93820.19;522667;28;824;-69
2023/12/27 01:07:13;;;;;;;16.25;11.05;;;;;;;0.90;72.56;93819.97;523670;28;789;-69
2023/12/27 01:07:28;;;;;;;18.50;13.30;;;;;;;0.92;72.42;93818.28;523413;28;1065;-69
2023/12/27 01:07:43;;;;;;;20.15;13.48;;;;;;;0.94;72.61;93817.81;523685;28;841;-69
2023/12/27 01:07:59;;;;;;;17.57;12.63;;;;;;;0.95;72.14;93819.31;522706;28;774;-69
2023/12/27 01:08:14;;;;;;;16.77;12.73;;;;;;;0.96;72.25;93820.78;521623;28;873;-69
2023/12/27 01:08:30;;;;;;;18.48;12.90;;;;;;;0.98;72.18;93821.06;521605;28;781;-69
2023/12/27 01:08:45;;;;;;;18.97;13.03;;;;;;;0.99;71.96;93817.88;521597;28;1002;-69
2023/12/27 01:09:00;;;;;;;18.85;13.15;;;;;;;1.00;72.29;93816.63;521563;28;798;-69
2023/12/27 01:09:16;;;;;;;19.17;13.23;;;;;;;1.00;72.26;93819.34;523452;28;1069;-69
2023/12/27 01:09:32;;;;;;;19.17;13.45;;;;;;;0.93;72.35;93813.59;522748;28;1729;-70
2023/12/27 01:09:48;;;;;;;20.30;14.00;;;;;;;0.91;72.25;93819.50;522506;28;785;-69
2023/12/27 01:10:05;;;;;;;19.90;14.13;;;;;;;0.93;72.36;93819.78;522775;28;899;-69
2023/12/27 01:10:20;;;;;;;20.50;14.07;;;;;;;0.96;72.32;93823.50;521573;28;1149;-69
2023/12/27 01:10:35;;;;;;;20.73;14.02;;;;;;;0.96;72.43;93818.06;522458;28;818;-69
2023/12/27 01:10:51;;;;;;;20.13;14.47;;;;;;;0.97;72.34;93814.13;523483;28;1017;-69
2023/12/27 01:11:07;;;;;;;19.87;14.67;;;;;;;0.98;72.32;93812.91;523602;28;955;-69
2023/12/27 01:11:22;;;;;;;18.88;13.98;;;;;;;0.95;71.78;93816.59;523697;28;825;-69
2023/12/27 01:11:37;;;;;;;18.85;13.52;;;;;;;0.89;72.72;93816.50;522967;28;836;-69
2023/12/27 01:11:53;;;;;;;22.17;14.83;;;;;;;0.90;72.63;93819.97;521582;28;794;-69
2023/12/27 01:12:08;;;;;;;21.65;15.10;;;;;;;0.91;72.61;93818.78;521449;28;1724;-69
2023/12/27 01:12:24;;;;;;;19.93;14.10;;;;;;;0.93;72.32;93822.50;522565;28;958;-69
2023/12/27 01:12:39;;;;;;;19.65;13.75;;;;;;;0.95;72.55;93822.03;521596;28;987;-69
2023/12/27 01:12:56;;;;;;;18.93;13.93;;;;;;;0.97;72.58;93825.00;521579;28;794;-69
2023/12/27 01:13:12;;;;;;;19.15;13.23;;;;;;;0.99;72.20;93820.59;521976;28;877;-69
2023/12/27 01:13:28;;;;;;;20.93;13.40;;;;;;;1.02;72.47;93819.63;523567;28;773;-69
2023/12/27 01:13:44;;;;;;;20.02;13.65;;;;;;;1.05;72.10;93815.22;523841;28;955;-69
2023/12/27 01:13:59;;;;;;;19.03;13.53;;;;;;;1.09;72.43;93816.50;523596;28;1045;-69
2023/12/27 01:14:16;;;;;;;19.90;14.20;;;;;;;1.10;72.37;93812.56;523607;28;868;-69
2023/12/27 01:14:32;;;;;;;20.73;14.10;;;;;;;1.09;72.20;93813.03;523722;28;837;-69
2023/12/27 01:14:47;;;;;;;19.83;13.70;;;;;;;1.07;71.99;93807.31;523159;28;1764;-69
2023/12/27 01:15:03;;;;;;;19.60;14.02;;;;;;;1.06;71.96;93814.00;522220;28;884;-70
2023/12/27 01:15:19;;;;;;;21.48;14.32;;;;;;;1.06;72.02;93811.28;523405;28;798;-69